Eagle Torrance — 9VMG5 — position and weather

sailwx.info

Track history (hours):
 
Tides and Currents Weather Stations Pressure Air Temp Water Temp Dewpoint Dewpoint Depression Visibility Wind Speed Wind Dir Waves Ship Positions

Eagle Torrance

Last reported at 2017-Oct-14 05:23 UTC. Time now 2017-Oct-17 13:13 UTC.
Position N 29°08' W 094°27'.

Length 246 m; draft 8.5 m.

Type: Tanker. MMSI: 565526000.

Date/timePositionNaut miles runAvg speedWind from/ knotsBaromVisibWave heightAir tempDewpointWater temp
2017-Oct-14 05:23N 29°08' W 094°27'1811.0
2017-Oct-14 03:45N 29°21' W 094°42'310.1
2017-Oct-14 03:30N 29°21' W 094°44'5 9.9
2017-Oct-14 03:00N 29°24' W 094°49'711.6
2017-Oct-14 02:26N 29°30' W 094°52'511.6
2017-Oct-14 02:00N 29°34' W 094°55'611.1
2017-Oct-14 01:29N 29°39' W 094°58'4 9.0
2017-Oct-14 01:00N 29°42' W 095°01'5 8.0
2017-Oct-14 00:26N 29°46' W 095°05'3 5.5
2017-Oct-13 23:56N 29°44' W 095°07'  
2017-Oct-11 18:11N 29°44' W 095°07'0 0.0
2017-Oct-11 18:00N 29°44' W 095°07'1 1.1
2017-Oct-11 17:30N 29°44' W 095°07'3 5.2
2017-Oct-11 17:00N 29°45' W 095°04'  
2017-Oct-06 07:24N 29°21' W 094°46'512.9
2017-Oct-06 07:00N 29°25' W 094°50'712.5
2017-Oct-06 06:28N 29°31' W 094°53'612.1
2017-Oct-06 06:00N 29°36' W 094°57'611.2
2017-Oct-06 05:30N 29°41' W 094°59'4 7.3
2017-Oct-06 05:00N 29°44' W 095°01'0 0.1
2017-Oct-06 04:06N 29°44' W 095°01'0 0.0
2017-Oct-06 04:00N 29°44' W 095°01'0 0.0
2017-Oct-06 03:30N 29°44' W 095°01'0 0.0
2017-Oct-06 02:42N 29°44' W 095°01'0 0.0
2017-Oct-06 02:30N 29°44' W 095°01'0 0.0
2017-Oct-06 01:18N 29°44' W 095°01'0 0.0
2017-Oct-06 00:48N 29°44' W 095°01'0 0.0
2017-Oct-04 18:51N 29°44' W 095°01'0 0.3
2017-Oct-04 18:30N 29°44' W 095°01'1 2.8
2017-Oct-04 18:00N 29°42' W 095°01'3 6.9
2017-Oct-04 17:30N 29°40' W 094°58'5 9.4
2017-Oct-04 17:00N 29°35' W 094°56'510.6
2017-Oct-04 16:30N 29°31' W 094°53'510.6
2017-Oct-04 16:00N 29°26' W 094°50'5 8.7
2017-Oct-04 15:29N 29°22' W 094°48'  
Track history (hours):
 
Tides and Currents Weather Stations Pressure Air Temp Water Temp Dewpoint Dewpoint Depression Visibility Wind Speed Wind Dir Waves Ship Positions

Eagle Torrance

Last reported at 2017-Oct-14 05:23 UTC. Time now 2017-Oct-17 13:13 UTC.
Position N 29°08' W 094°27'.

Length 246 m; draft 8.5 m.

Type: Tanker. MMSI: 565526000.

Date/timePositionNaut miles runAvg speedWind from/ knotsBaromVisibWave heightAir tempDewpointWater temp
2017-Oct-14 05:23N 29°08' W 094°27'1811.0
2017-Oct-14 03:45N 29°21' W 094°42'310.1
2017-Oct-14 03:30N 29°21' W 094°44'5 9.9
2017-Oct-14 03:00N 29°24' W 094°49'711.6
2017-Oct-14 02:26N 29°30' W 094°52'511.6
2017-Oct-14 02:00N 29°34' W 094°55'611.1
2017-Oct-14 01:29N 29°39' W 094°58'4 9.0
2017-Oct-14 01:00N 29°42' W 095°01'5 8.0
2017-Oct-14 00:26N 29°46' W 095°05'3 5.5
2017-Oct-13 23:56N 29°44' W 095°07'  
2017-Oct-11 18:11N 29°44' W 095°07'0 0.0
2017-Oct-11 18:00N 29°44' W 095°07'1 1.1
2017-Oct-11 17:30N 29°44' W 095°07'3 5.2
2017-Oct-11 17:00N 29°45' W 095°04'  
2017-Oct-06 07:24N 29°21' W 094°46'512.9
2017-Oct-06 07:00N 29°25' W 094°50'712.5
2017-Oct-06 06:28N 29°31' W 094°53'612.1
2017-Oct-06 06:00N 29°36' W 094°57'611.2
2017-Oct-06 05:30N 29°41' W 094°59'4 7.3
2017-Oct-06 05:00N 29°44' W 095°01'0 0.1
2017-Oct-06 04:06N 29°44' W 095°01'0 0.0
2017-Oct-06 04:00N 29°44' W 095°01'0 0.0
2017-Oct-06 03:30N 29°44' W 095°01'0 0.0
2017-Oct-06 02:42N 29°44' W 095°01'0 0.0
2017-Oct-06 02:30N 29°44' W 095°01'0 0.0
2017-Oct-06 01:18N 29°44' W 095°01'0 0.0
2017-Oct-06 00:48N 29°44' W 095°01'0 0.0
2017-Oct-04 18:51N 29°44' W 095°01'0 0.3
2017-Oct-04 18:30N 29°44' W 095°01'1 2.8
2017-Oct-04 18:00N 29°42' W 095°01'3 6.9
2017-Oct-04 17:30N 29°40' W 094°58'5 9.4
2017-Oct-04 17:00N 29°35' W 094°56'510.6
2017-Oct-04 16:30N 29°31' W 094°53'510.6
2017-Oct-04 16:00N 29°26' W 094°50'5 8.7
2017-Oct-04 15:29N 29°22' W 094°48'  

Dump ship's entire track history